Terminal Aerodrome Forecast
Issued by NWS Los Angeles, CA

Home | Current Version | Previous Version | Text Only | Print | Product List | Glossary On
Versions: 1 2 3 4 5 6 7 8 9 10 11 12 13 14 15 16 17 18 19 20
000
FTUS46 KLOX 281700 RRA
TAFSMX
TAF
KSMX 281743Z 2818/2918 00000KT P6SM BKN200
     FM282100 32008KT P6SM BKN200
     FM290300 VRB03KT P6SM BKN200
     FM290900 VRB03KT 5SM BR SCT005 BKN200=

USA.gov is the U.S. government's official web portal to all federal, state and local government web resources and services.